sensor_id;sensor_type;location;lat;lon;timestamp;P1;durP1;ratioP1;P2;durP2;ratioP2
48006;SDS011;33771;48.180;11.400;2022-08-16T00:00:17;1.25;;;1.08;;
48006;SDS011;33771;48.180;11.400;2022-08-16T00:02:44;1.20;;;1.08;;
48006;SDS011;33771;48.180;11.400;2022-08-16T00:05:10;1.85;;;1.40;;
48006;SDS011;33771;48.180;11.400;2022-08-16T00:07:37;2.72;;;1.65;;
48006;SDS011;33771;48.180;11.400;2022-08-16T00:10:05;1.50;;;1.20;;
48006;SDS011;33771;48.180;11.400;2022-08-16T00:12:32;1.40;;;1.10;;
48006;SDS011;33771;48.180;11.400;2022-08-16T00:14:59;3.25;;;1.50;;
48006;SDS011;33771;48.180;11.400;2022-08-16T00:17:30;1.70;;;1.30;;
48006;SDS011;33771;48.180;11.400;2022-08-16T00:19:55;2.25;;;1.25;;
48006;SDS011;33771;48.180;11.400;2022-08-16T00:22:22;1.70;;;1.33;;
48006;SDS011;33771;48.180;11.400;2022-08-16T00:24:48;1.83;;;1.23;;
48006;SDS011;33771;48.180;11.400;2022-08-16T00:27:14;2.53;;;1.50;;
48006;SDS011;33771;48.180;11.400;2022-08-16T00:29:40;3.63;;;1.40;;
48006;SDS011;33771;48.180;11.400;2022-08-16T00:32:06;4.38;;;1.83;;
48006;SDS011;33771;48.180;11.400;2022-08-16T00:34:34;2.55;;;1.50;;
48006;SDS011;33771;48.180;11.400;2022-08-16T00:37:00;3.17;;;1.98;;
48006;SDS011;33771;48.180;11.400;2022-08-16T00:39:26;2.13;;;1.50;;
48006;SDS011;33771;48.180;11.400;2022-08-16T00:41:52;2.25;;;1.50;;
48006;SDS011;33771;48.180;11.400;2022-08-16T00:44:19;3.72;;;1.92;;
48006;SDS011;33771;48.180;11.400;2022-08-16T00:46:53;3.08;;;1.67;;
48006;SDS011;33771;48.180;11.400;2022-08-16T00:49:22;2.70;;;1.60;;
48006;SDS011;33771;48.180;11.400;2022-08-16T00:51:48;1.85;;;1.35;;
48006;SDS011;33771;48.180;11.400;2022-08-16T00:54:15;2.42;;;1.52;;
48006;SDS011;33771;48.180;11.400;2022-08-16T00:56:43;2.95;;;1.83;;
48006;SDS011;33771;48.180;11.400;2022-08-16T00:59:11;2.95;;;1.55;;
48006;SDS011;33771;48.180;11.400;2022-08-16T01:01:38;2.10;;;1.80;;
48006;SDS011;33771;48.180;11.400;2022-08-16T01:04:05;2.22;;;1.52;;
48006;SDS011;33771;48.180;11.400;2022-08-16T01:06:32;3.33;;;1.85;;
48006;SDS011;33771;48.180;11.400;2022-08-16T01:08:59;3.67;;;1.42;;
48006;SDS011;33771;48.180;11.400;2022-08-16T01:11:29;2.35;;;1.60;;
48006;SDS011;33771;48.180;11.400;2022-08-16T01:13:57;2.80;;;1.75;;
48006;SDS011;33771;48.180;11.400;2022-08-16T01:16:29;2.70;;;1.60;;
48006;SDS011;33771;48.180;11.400;2022-08-16T01:19:00;2.50;;;1.50;;
48006;SDS011;33771;48.180;11.400;2022-08-16T01:26:43;3.08;;;1.60;;
48006;SDS011;33771;48.180;11.400;2022-08-16T01:29:13;1.70;;;1.33;;
48006;SDS011;33771;48.180;11.400;2022-08-16T01:31:42;2.35;;;1.60;;
48006;SDS011;33771;48.180;11.400;2022-08-16T01:34:09;3.03;;;1.80;;
48006;SDS011;33771;48.180;11.400;2022-08-16T01:36:37;2.58;;;1.50;;
48006;SDS011;33771;48.180;11.400;2022-08-16T01:39:07;3.55;;;1.85;;
48006;SDS011;33771;48.180;11.400;2022-08-16T01:41:38;2.58;;;1.55;;
48006;SDS011;33771;48.180;11.400;2022-08-16T01:44:08;3.15;;;1.65;;
48006;SDS011;33771;48.180;11.400;2022-08-16T01:46:35;2.17;;;1.55;;
48006;SDS011;33771;48.180;11.400;2022-08-16T01:49:05;2.55;;;1.42;;
48006;SDS011;33771;48.180;11.400;2022-08-16T01:51:34;2.92;;;1.40;;
48006;SDS011;33771;48.180;11.400;2022-08-16T01:54:00;2.70;;;1.77;;
48006;SDS011;33771;48.180;11.400;2022-08-16T01:56:27;3.92;;;2.33;;
48006;SDS011;33771;48.180;11.400;2022-08-16T01:58:54;2.33;;;1.60;;
48006;SDS011;33771;48.180;11.400;2022-08-16T02:01:21;3.42;;;1.60;;
48006;SDS011;33771;48.180;11.400;2022-08-16T02:03:47;2.22;;;1.55;;
48006;SDS011;33771;48.180;11.400;2022-08-16T02:06:13;1.67;;;1.40;;
48006;SDS011;33771;48.180;11.400;2022-08-16T02:08:38;2.63;;;1.50;;
48006;SDS011;33771;48.180;11.400;2022-08-16T02:11:05;2.85;;;1.42;;
48006;SDS011;33771;48.180;11.400;2022-08-16T02:13:32;2.05;;;1.50;;
48006;SDS011;33771;48.180;11.400;2022-08-16T02:16:00;3.33;;;1.77;;
48006;SDS011;33771;48.180;11.400;2022-08-16T02:18:26;2.15;;;1.40;;
48006;SDS011;33771;48.180;11.400;2022-08-16T02:20:53;2.65;;;1.70;;
48006;SDS011;33771;48.180;11.400;2022-08-16T02:23:19;2.33;;;1.58;;
48006;SDS011;33771;48.180;11.400;2022-08-16T02:25:46;2.20;;;1.45;;
48006;SDS011;33771;48.180;11.400;2022-08-16T02:28:13;4.10;;;1.90;;
48006;SDS011;33771;48.180;11.400;2022-08-16T02:30:39;3.47;;;1.60;;
48006;SDS011;33771;48.180;11.400;2022-08-16T02:33:04;5.40;;;1.85;;
48006;SDS011;33771;48.180;11.400;2022-08-16T02:35:31;2.47;;;1.63;;
48006;SDS011;33771;48.180;11.400;2022-08-16T02:37:58;4.93;;;1.75;;
48006;SDS011;33771;48.180;11.400;2022-08-16T02:40:24;2.72;;;1.60;;
48006;SDS011;33771;48.180;11.400;2022-08-16T02:42:50;3.35;;;1.63;;
48006;SDS011;33771;48.180;11.400;2022-08-16T02:45:17;3.35;;;1.70;;
48006;SDS011;33771;48.180;11.400;2022-08-16T02:47:44;1.70;;;1.45;;
48006;SDS011;33771;48.180;11.400;2022-08-16T02:50:10;3.10;;;1.70;;
48006;SDS011;33771;48.180;11.400;2022-08-16T02:52:35;2.38;;;1.63;;
48006;SDS011;33771;48.180;11.400;2022-08-16T02:55:01;4.18;;;1.40;;
48006;SDS011;33771;48.180;11.400;2022-08-16T02:57:27;2.70;;;1.67;;
48006;SDS011;33771;48.180;11.400;2022-08-16T02:59:53;4.18;;;1.73;;
48006;SDS011;33771;48.180;11.400;2022-08-16T03:02:18;2.40;;;1.70;;
48006;SDS011;33771;48.180;11.400;2022-08-16T03:04:44;3.45;;;1.63;;
48006;SDS011;33771;48.180;11.400;2022-08-16T03:07:10;3.15;;;2.00;;
48006;SDS011;33771;48.180;11.400;2022-08-16T03:09:36;2.40;;;1.75;;
48006;SDS011;33771;48.180;11.400;2022-08-16T03:12:03;2.00;;;1.63;;
48006;SDS011;33771;48.180;11.400;2022-08-16T03:14:29;2.28;;;1.80;;
48006;SDS011;33771;48.180;11.400;2022-08-16T03:16:56;3.22;;;1.80;;
48006;SDS011;33771;48.180;11.400;2022-08-16T03:19:22;4.28;;;2.05;;
48006;SDS011;33771;48.180;11.400;2022-08-16T03:21:49;2.13;;;1.63;;
48006;SDS011;33771;48.180;11.400;2022-08-16T03:24:14;2.13;;;1.60;;
48006;SDS011;33771;48.180;11.400;2022-08-16T03:26:40;2.65;;;1.80;;
48006;SDS011;33771;48.180;11.400;2022-08-16T03:29:06;3.58;;;1.67;;
48006;SDS011;33771;48.180;11.400;2022-08-16T03:31:31;3.20;;;1.65;;
48006;SDS011;33771;48.180;11.400;2022-08-16T03:33:57;3.58;;;1.73;;
48006;SDS011;33771;48.180;11.400;2022-08-16T03:36:22;4.53;;;1.60;;
48006;SDS011;33771;48.180;11.400;2022-08-16T03:38:48;3.60;;;1.90;;
48006;SDS011;33771;48.180;11.400;2022-08-16T03:41:14;3.88;;;1.80;;
48006;SDS011;33771;48.180;11.400;2022-08-16T03:43:40;3.35;;;1.85;;
48006;SDS011;33771;48.180;11.400;2022-08-16T03:46:05;4.35;;;2.10;;
48006;SDS011;33771;48.180;11.400;2022-08-16T03:48:33;3.85;;;2.00;;
48006;SDS011;33771;48.180;11.400;2022-08-16T03:51:01;2.00;;;1.60;;
48006;SDS011;33771;48.180;11.400;2022-08-16T03:53:28;5.38;;;1.83;;
48006;SDS011;33771;48.180;11.400;2022-08-16T03:55:58;2.38;;;1.50;;
48006;SDS011;33771;48.180;11.400;2022-08-16T03:58:23;4.18;;;2.00;;
48006;SDS011;33771;48.180;11.400;2022-08-16T04:00:49;2.58;;;1.80;;
48006;SDS011;33771;48.180;11.400;2022-08-16T04:03:14;3.47;;;1.70;;
48006;SDS011;33771;48.180;11.400;2022-08-16T04:05:42;3.45;;;2.00;;
48006;SDS011;33771;48.180;11.400;2022-08-16T04:08:10;5.25;;;2.35;;
48006;SDS011;33771;48.180;11.400;2022-08-16T04:10:36;5.93;;;2.20;;
48006;SDS011;33771;48.180;11.400;2022-08-16T04:13:02;3.58;;;1.95;;
48006;SDS011;33771;48.180;11.400;2022-08-16T04:15:28;4.65;;;2.00;;
48006;SDS011;33771;48.180;11.400;2022-08-16T04:17:54;2.97;;;2.15;;
48006;SDS011;33771;48.180;11.400;2022-08-16T04:20:21;4.97;;;2.10;;
48006;SDS011;33771;48.180;11.400;2022-08-16T04:22:50;4.70;;;2.25;;
48006;SDS011;33771;48.180;11.400;2022-08-16T04:25:18;4.90;;;2.35;;
48006;SDS011;33771;48.180;11.400;2022-08-16T04:27:44;3.72;;;2.13;;
48006;SDS011;33771;48.180;11.400;2022-08-16T04:30:11;6.15;;;2.90;;
48006;SDS011;33771;48.180;11.400;2022-08-16T04:32:39;3.78;;;2.25;;
48006;SDS011;33771;48.180;11.400;2022-08-16T04:35:05;5.55;;;2.10;;
48006;SDS011;33771;48.180;11.400;2022-08-16T04:37:33;3.80;;;2.28;;
48006;SDS011;33771;48.180;11.400;2022-08-16T04:39:59;3.92;;;2.10;;
48006;SDS011;33771;48.180;11.400;2022-08-16T04:42:25;4.10;;;1.98;;
48006;SDS011;33771;48.180;11.400;2022-08-16T04:44:51;5.45;;;2.00;;
48006;SDS011;33771;48.180;11.400;2022-08-16T04:47:18;3.25;;;1.88;;
48006;SDS011;33771;48.180;11.400;2022-08-16T04:49:44;4.47;;;2.00;;
48006;SDS011;33771;48.180;11.400;2022-08-16T04:52:09;5.60;;;2.10;;
48006;SDS011;33771;48.180;11.400;2022-08-16T04:54:36;3.92;;;2.38;;
48006;SDS011;33771;48.180;11.400;2022-08-16T04:57:02;2.78;;;2.00;;
48006;SDS011;33771;48.180;11.400;2022-08-16T04:59:28;6.00;;;2.53;;
48006;SDS011;33771;48.180;11.400;2022-08-16T05:01:57;2.97;;;1.90;;
48006;SDS011;33771;48.180;11.400;2022-08-16T05:04:22;4.70;;;2.10;;
48006;SDS011;33771;48.180;11.400;2022-08-16T05:06:48;4.95;;;2.53;;
48006;SDS011;33771;48.180;11.400;2022-08-16T05:09:15;6.32;;;2.17;;
48006;SDS011;33771;48.180;11.400;2022-08-16T05:11:40;7.35;;;2.20;;
48006;SDS011;33771;48.180;11.400;2022-08-16T05:14:06;3.22;;;2.35;;
48006;SDS011;33771;48.180;11.400;2022-08-16T05:16:31;3.25;;;2.08;;
48006;SDS011;33771;48.180;11.400;2022-08-16T05:18:59;6.03;;;2.40;;
48006;SDS011;33771;48.180;11.400;2022-08-16T05:21:26;2.83;;;2.00;;
48006;SDS011;33771;48.180;11.400;2022-08-16T05:23:53;3.60;;;2.17;;
48006;SDS011;33771;48.180;11.400;2022-08-16T05:26:19;5.85;;;2.40;;
48006;SDS011;33771;48.180;11.400;2022-08-16T05:28:45;3.92;;;2.10;;
48006;SDS011;33771;48.180;11.400;2022-08-16T05:31:12;3.22;;;1.90;;
48006;SDS011;33771;48.180;11.400;2022-08-16T05:33:37;6.05;;;2.15;;
48006;SDS011;33771;48.180;11.400;2022-08-16T05:36:03;3.85;;;2.00;;
48006;SDS011;33771;48.180;11.400;2022-08-16T05:38:29;3.13;;;2.05;;
48006;SDS011;33771;48.180;11.400;2022-08-16T05:40:55;3.03;;;2.17;;
48006;SDS011;33771;48.180;11.400;2022-08-16T05:43:22;5.10;;;2.05;;
48006;SDS011;33771;48.180;11.400;2022-08-16T05:45:48;2.30;;;1.90;;
48006;SDS011;33771;48.180;11.400;2022-08-16T05:48:15;4.45;;;2.20;;
48006;SDS011;33771;48.180;11.400;2022-08-16T05:50:40;3.53;;;2.30;;
48006;SDS011;33771;48.180;11.400;2022-08-16T05:53:06;6.82;;;2.70;;
48006;SDS011;33771;48.180;11.400;2022-08-16T05:55:32;7.22;;;2.10;;
48006;SDS011;33771;48.180;11.400;2022-08-16T05:57:57;4.97;;;2.45;;
48006;SDS011;33771;48.180;11.400;2022-08-16T06:00:23;8.88;;;2.00;;
48006;SDS011;33771;48.180;11.400;2022-08-16T06:02:49;6.72;;;2.00;;
48006;SDS011;33771;48.180;11.400;2022-08-16T06:05:15;8.15;;;2.47;;
48006;SDS011;33771;48.180;11.400;2022-08-16T06:07:41;4.35;;;2.28;;
48006;SDS011;33771;48.180;11.400;2022-08-16T06:10:07;4.10;;;2.70;;
48006;SDS011;33771;48.180;11.400;2022-08-16T06:12:34;5.03;;;2.83;;
48006;SDS011;33771;48.180;11.400;2022-08-16T06:15:00;5.97;;;2.20;;
48006;SDS011;33771;48.180;11.400;2022-08-16T06:17:28;4.10;;;2.42;;
48006;SDS011;33771;48.180;11.400;2022-08-16T06:19:56;4.45;;;2.00;;
48006;SDS011;33771;48.180;11.400;2022-08-16T06:22:25;4.68;;;2.20;;
48006;SDS011;33771;48.180;11.400;2022-08-16T06:24:56;4.55;;;2.10;;
48006;SDS011;33771;48.180;11.400;2022-08-16T06:27:22;7.28;;;2.35;;
48006;SDS011;33771;48.180;11.400;2022-08-16T06:29:48;2.90;;;1.85;;
48006;SDS011;33771;48.180;11.400;2022-08-16T06:32:14;3.58;;;1.98;;
48006;SDS011;33771;48.180;11.400;2022-08-16T06:34:39;4.25;;;2.22;;
48006;SDS011;33771;48.180;11.400;2022-08-16T06:37:05;3.80;;;1.70;;
48006;SDS011;33771;48.180;11.400;2022-08-16T06:39:31;5.32;;;2.10;;
48006;SDS011;33771;48.180;11.400;2022-08-16T06:41:57;4.10;;;2.00;;
48006;SDS011;33771;48.180;11.400;2022-08-16T06:44:22;2.40;;;1.90;;
48006;SDS011;33771;48.180;11.400;2022-08-16T06:46:48;3.55;;;2.10;;
48006;SDS011;33771;48.180;11.400;2022-08-16T06:49:14;2.22;;;1.77;;
48006;SDS011;33771;48.180;11.400;2022-08-16T06:51:40;3.58;;;1.88;;
48006;SDS011;33771;48.180;11.400;2022-08-16T06:54:06;3.53;;;2.10;;
48006;SDS011;33771;48.180;11.400;2022-08-16T06:56:33;2.53;;;1.98;;
48006;SDS011;33771;48.180;11.400;2022-08-16T06:59:00;2.15;;;1.73;;
48006;SDS011;33771;48.180;11.400;2022-08-16T07:01:27;5.43;;;2.20;;
48006;SDS011;33771;48.180;11.400;2022-08-16T07:03:54;3.28;;;1.95;;
48006;SDS011;33771;48.180;11.400;2022-08-16T07:06:19;4.82;;;2.05;;
48006;SDS011;33771;48.180;11.400;2022-08-16T07:08:46;2.03;;;1.65;;
48006;SDS011;33771;48.180;11.400;2022-08-16T07:11:13;7.75;;;1.88;;
48006;SDS011;33771;48.180;11.400;2022-08-16T07:13:39;4.78;;;2.13;;
48006;SDS011;33771;48.180;11.400;2022-08-16T07:16:05;2.95;;;1.80;;
48006;SDS011;33771;48.180;11.400;2022-08-16T07:18:36;3.35;;;1.90;;
48006;SDS011;33771;48.180;11.400;2022-08-16T07:21:02;2.67;;;1.98;;
48006;SDS011;33771;48.180;11.400;2022-08-16T07:23:32;3.03;;;2.25;;
48006;SDS011;33771;48.180;11.400;2022-08-16T07:25:58;2.70;;;2.00;;
48006;SDS011;33771;48.180;11.400;2022-08-16T07:28:24;4.95;;;2.10;;
48006;SDS011;33771;48.180;11.400;2022-08-16T07:30:50;4.18;;;2.25;;
48006;SDS011;33771;48.180;11.400;2022-08-16T07:33:15;3.35;;;2.00;;
48006;SDS011;33771;48.180;11.400;2022-08-16T07:35:45;4.70;;;2.50;;
48006;SDS011;33771;48.180;11.400;2022-08-16T07:38:13;5.13;;;2.30;;
48006;SDS011;33771;48.180;11.400;2022-08-16T07:40:39;4.80;;;2.20;;
48006;SDS011;33771;48.180;11.400;2022-08-16T07:43:05;3.97;;;2.00;;
48006;SDS011;33771;48.180;11.400;2022-08-16T07:45:30;2.28;;;1.92;;
48006;SDS011;33771;48.180;11.400;2022-08-16T07:47:57;5.10;;;1.75;;
48006;SDS011;33771;48.180;11.400;2022-08-16T07:50:23;2.38;;;2.00;;
48006;SDS011;33771;48.180;11.400;2022-08-16T07:52:49;4.18;;;2.28;;
48006;SDS011;33771;48.180;11.400;2022-08-16T07:55:15;4.40;;;2.25;;
48006;SDS011;33771;48.180;11.400;2022-08-16T07:57:41;3.90;;;2.08;;
48006;SDS011;33771;48.180;11.400;2022-08-16T08:00:08;4.28;;;2.20;;
48006;SDS011;33771;48.180;11.400;2022-08-16T08:02:34;7.07;;;2.15;;
48006;SDS011;33771;48.180;11.400;2022-08-16T08:05:00;6.65;;;2.00;;
48006;SDS011;33771;48.180;11.400;2022-08-16T08:07:27;9.90;;;2.78;;
48006;SDS011;33771;48.180;11.400;2022-08-16T08:09:53;8.48;;;2.47;;
48006;SDS011;33771;48.180;11.400;2022-08-16T08:12:19;2.30;;;2.10;;
48006;SDS011;33771;48.180;11.400;2022-08-16T08:14:45;5.38;;;2.15;;
48006;SDS011;33771;48.180;11.400;2022-08-16T08:17:12;5.10;;;2.03;;
48006;SDS011;33771;48.180;11.400;2022-08-16T08:19:38;5.63;;;2.65;;
48006;SDS011;33771;48.180;11.400;2022-08-16T08:22:05;4.63;;;2.20;;
48006;SDS011;33771;48.180;11.400;2022-08-16T08:24:32;2.53;;;1.92;;
48006;SDS011;33771;48.180;11.400;2022-08-16T08:27:02;4.75;;;2.40;;
48006;SDS011;33771;48.180;11.400;2022-08-16T08:29:28;4.15;;;2.17;;
48006;SDS011;33771;48.180;11.400;2022-08-16T08:31:55;4.70;;;2.10;;
48006;SDS011;33771;48.180;11.400;2022-08-16T08:34:20;4.68;;;2.53;;
48006;SDS011;33771;48.180;11.400;2022-08-16T08:36:46;4.15;;;2.47;;
48006;SDS011;33771;48.180;11.400;2022-08-16T08:39:12;4.85;;;2.15;;
48006;SDS011;33771;48.180;11.400;2022-08-16T08:41:39;4.47;;;2.20;;
48006;SDS011;33771;48.180;11.400;2022-08-16T08:44:06;4.63;;;2.50;;
48006;SDS011;33771;48.180;11.400;2022-08-16T08:46:31;5.20;;;2.38;;
48006;SDS011;33771;48.180;11.400;2022-08-16T08:48:57;5.55;;;2.40;;
48006;SDS011;33771;48.180;11.400;2022-08-16T08:51:22;3.47;;;2.30;;
48006;SDS011;33771;48.180;11.400;2022-08-16T08:53:49;7.07;;;2.50;;
48006;SDS011;33771;48.180;11.400;2022-08-16T08:56:15;5.53;;;2.20;;
48006;SDS011;33771;48.180;11.400;2022-08-16T08:58:42;5.70;;;2.88;;
48006;SDS011;33771;48.180;11.400;2022-08-16T09:01:08;3.70;;;1.98;;
48006;SDS011;33771;48.180;11.400;2022-08-16T09:03:34;5.68;;;2.33;;
48006;SDS011;33771;48.180;11.400;2022-08-16T09:06:01;2.83;;;2.08;;
48006;SDS011;33771;48.180;11.400;2022-08-16T09:08:27;3.33;;;2.20;;
48006;SDS011;33771;48.180;11.400;2022-08-16T09:10:55;5.97;;;2.35;;
48006;SDS011;33771;48.180;11.400;2022-08-16T09:13:23;4.25;;;2.40;;
48006;SDS011;33771;48.180;11.400;2022-08-16T09:15:52;4.60;;;2.28;;
48006;SDS011;33771;48.180;11.400;2022-08-16T09:18:22;5.28;;;2.30;;
48006;SDS011;33771;48.180;11.400;2022-08-16T09:21:00;4.30;;;2.50;;
48006;SDS011;33771;48.180;11.400;2022-08-16T09:23:42;3.30;;;2.10;;
48006;SDS011;33771;48.180;11.400;2022-08-16T09:26:12;4.57;;;2.33;;
48006;SDS011;33771;48.180;11.400;2022-08-16T09:28:51;4.65;;;2.58;;
48006;SDS011;33771;48.180;11.400;2022-08-16T09:31:23;4.28;;;2.28;;
48006;SDS011;33771;48.180;11.400;2022-08-16T09:33:49;8.23;;;2.45;;
48006;SDS011;33771;48.180;11.400;2022-08-16T09:36:16;4.45;;;2.42;;
48006;SDS011;33771;48.180;11.400;2022-08-16T09:38:43;4.47;;;2.65;;
48006;SDS011;33771;48.180;11.400;2022-08-16T09:41:09;3.58;;;2.42;;
48006;SDS011;33771;48.180;11.400;2022-08-16T09:43:36;2.97;;;2.10;;
48006;SDS011;33771;48.180;11.400;2022-08-16T09:46:04;4.72;;;2.28;;
48006;SDS011;33771;48.180;11.400;2022-08-16T09:48:31;3.08;;;1.90;;
48006;SDS011;33771;48.180;11.400;2022-08-16T09:50:57;6.13;;;2.35;;
48006;SDS011;33771;48.180;11.400;2022-08-16T09:53:23;4.22;;;2.40;;
48006;SDS011;33771;48.180;11.400;2022-08-16T09:55:50;4.80;;;2.88;;
48006;SDS011;33771;48.180;11.400;2022-08-16T09:58:19;5.55;;;2.58;;
48006;SDS011;33771;48.180;11.400;2022-08-16T10:00:46;4.65;;;1.92;;
48006;SDS011;33771;48.180;11.400;2022-08-16T10:03:13;3.55;;;2.22;;
48006;SDS011;33771;48.180;11.400;2022-08-16T10:05:38;5.00;;;2.63;;
48006;SDS011;33771;48.180;11.400;2022-08-16T10:08:04;3.50;;;2.05;;
48006;SDS011;33771;48.180;11.400;2022-08-16T10:10:31;5.70;;;2.40;;
48006;SDS011;33771;48.180;11.400;2022-08-16T10:12:57;5.28;;;2.15;;
48006;SDS011;33771;48.180;11.400;2022-08-16T10:15:36;5.45;;;2.40;;
48006;SDS011;33771;48.180;11.400;2022-08-16T10:18:03;5.22;;;2.40;;
48006;SDS011;33771;48.180;11.400;2022-08-16T10:20:32;3.30;;;2.10;;
48006;SDS011;33771;48.180;11.400;2022-08-16T10:23:03;4.03;;;2.40;;
48006;SDS011;33771;48.180;11.400;2022-08-16T10:25:30;5.22;;;2.42;;
48006;SDS011;33771;48.180;11.400;2022-08-16T10:27:56;5.50;;;2.28;;
48006;SDS011;33771;48.180;11.400;2022-08-16T10:30:22;3.08;;;1.90;;
48006;SDS011;33771;48.180;11.400;2022-08-16T10:32:47;4.22;;;2.00;;
48006;SDS011;33771;48.180;11.400;2022-08-16T10:35:13;3.92;;;1.95;;
48006;SDS011;33771;48.180;11.400;2022-08-16T10:37:39;4.32;;;2.03;;
48006;SDS011;33771;48.180;11.400;2022-08-16T10:40:10;5.60;;;1.90;;
48006;SDS011;33771;48.180;11.400;2022-08-16T10:42:39;3.75;;;2.28;;
48006;SDS011;33771;48.180;11.400;2022-08-16T10:45:05;4.57;;;1.85;;
48006;SDS011;33771;48.180;11.400;2022-08-16T10:47:35;4.13;;;2.13;;
48006;SDS011;33771;48.180;11.400;2022-08-16T10:50:01;5.30;;;2.17;;
48006;SDS011;33771;48.180;11.400;2022-08-16T10:52:27;3.88;;;2.10;;
48006;SDS011;33771;48.180;11.400;2022-08-16T10:54:54;3.67;;;2.40;;
48006;SDS011;33771;48.180;11.400;2022-08-16T10:57:26;3.30;;;2.00;;
48006;SDS011;33771;48.180;11.400;2022-08-16T10:59:53;7.15;;;2.08;;
48006;SDS011;33771;48.180;11.400;2022-08-16T11:02:19;3.50;;;2.28;;
48006;SDS011;33771;48.180;11.400;2022-08-16T11:04:46;4.25;;;2.00;;
48006;SDS011;33771;48.180;11.400;2022-08-16T11:07:12;3.88;;;2.10;;
48006;SDS011;33771;48.180;11.400;2022-08-16T11:09:38;3.58;;;2.17;;
48006;SDS011;33771;48.180;11.400;2022-08-16T11:12:04;3.22;;;2.00;;
48006;SDS011;33771;48.180;11.400;2022-08-16T11:14:31;5.18;;;2.20;;
48006;SDS011;33771;48.180;11.400;2022-08-16T11:16:57;5.80;;;2.00;;
48006;SDS011;33771;48.180;11.400;2022-08-16T11:19:27;4.70;;;2.10;;
48006;SDS011;33771;48.180;11.400;2022-08-16T11:21:54;4.07;;;1.80;;
48006;SDS011;33771;48.180;11.400;2022-08-16T11:24:20;3.33;;;2.13;;
48006;SDS011;33771;48.180;11.400;2022-08-16T11:26:46;2.67;;;2.00;;
48006;SDS011;33771;48.180;11.400;2022-08-16T11:29:12;4.32;;;2.05;;
48006;SDS011;33771;48.180;11.400;2022-08-16T11:31:37;4.88;;;1.92;;
48006;SDS011;33771;48.180;11.400;2022-08-16T11:34:03;2.95;;;2.20;;
48006;SDS011;33771;48.180;11.400;2022-08-16T11:36:29;5.40;;;2.15;;
48006;SDS011;33771;48.180;11.400;2022-08-16T11:38:57;8.63;;;2.63;;
48006;SDS011;33771;48.180;11.400;2022-08-16T11:41:24;5.40;;;1.98;;
48006;SDS011;33771;48.180;11.400;2022-08-16T11:43:52;3.55;;;2.25;;
48006;SDS011;33771;48.180;11.400;2022-08-16T11:46:18;5.32;;;2.35;;
48006;SDS011;33771;48.180;11.400;2022-08-16T11:48:44;2.88;;;1.80;;
48006;SDS011;33771;48.180;11.400;2022-08-16T11:51:10;5.28;;;2.00;;
48006;SDS011;33771;48.180;11.400;2022-08-16T11:53:36;3.10;;;1.88;;
48006;SDS011;33771;48.180;11.400;2022-08-16T11:56:02;2.72;;;1.90;;
48006;SDS011;33771;48.180;11.400;2022-08-16T11:58:29;4.35;;;2.55;;
48006;SDS011;33771;48.180;11.400;2022-08-16T12:00:56;4.85;;;1.90;;
48006;SDS011;33771;48.180;11.400;2022-08-16T12:03:23;8.77;;;2.10;;
48006;SDS011;33771;48.180;11.400;2022-08-16T12:05:51;4.05;;;1.90;;
48006;SDS011;33771;48.180;11.400;2022-08-16T12:08:17;3.88;;;1.90;;
48006;SDS011;33771;48.180;11.400;2022-08-16T12:10:44;5.50;;;1.90;;
48006;SDS011;33771;48.180;11.400;2022-08-16T12:13:11;3.28;;;1.77;;
48006;SDS011;33771;48.180;11.400;2022-08-16T12:15:37;2.85;;;1.50;;
48006;SDS011;33771;48.180;11.400;2022-08-16T12:18:04;3.67;;;1.88;;
48006;SDS011;33771;48.180;11.400;2022-08-16T12:20:31;2.22;;;1.55;;
48006;SDS011;33771;48.180;11.400;2022-08-16T12:22:59;3.75;;;2.10;;
48006;SDS011;33771;48.180;11.400;2022-08-16T12:25:26;4.93;;;2.05;;
48006;SDS011;33771;48.180;11.400;2022-08-16T12:27:53;5.20;;;2.38;;
48006;SDS011;33771;48.180;11.400;2022-08-16T12:30:21;2.63;;;1.73;;
48006;SDS011;33771;48.180;11.400;2022-08-16T12:32:50;4.18;;;2.30;;
48006;SDS011;33771;48.180;11.400;2022-08-16T12:35:18;7.22;;;2.40;;
48006;SDS011;33771;48.180;11.400;2022-08-16T12:37:45;5.03;;;2.22;;
48006;SDS011;33771;48.180;11.400;2022-08-16T12:40:15;4.70;;;1.80;;
48006;SDS011;33771;48.180;11.400;2022-08-16T12:42:45;6.30;;;1.90;;
48006;SDS011;33771;48.180;11.400;2022-08-16T12:45:13;3.35;;;1.73;;
48006;SDS011;33771;48.180;11.400;2022-08-16T12:47:40;3.15;;;1.95;;
48006;SDS011;33771;48.180;11.400;2022-08-16T12:50:24;4.05;;;1.73;;
48006;SDS011;33771;48.180;11.400;2022-08-16T12:52:50;3.38;;;2.17;;
48006;SDS011;33771;48.180;11.400;2022-08-16T12:55:16;3.80;;;1.95;;
48006;SDS011;33771;48.180;11.400;2022-08-16T12:57:41;3.67;;;2.00;;
48006;SDS011;33771;48.180;11.400;2022-08-16T13:00:10;5.15;;;2.30;;
48006;SDS011;33771;48.180;11.400;2022-08-16T13:02:38;4.47;;;2.00;;
48006;SDS011;33771;48.180;11.400;2022-08-16T13:05:05;4.65;;;1.92;;
48006;SDS011;33771;48.180;11.400;2022-08-16T13:07:31;4.90;;;2.15;;
48006;SDS011;33771;48.180;11.400;2022-08-16T13:09:57;3.80;;;1.65;;
48006;SDS011;33771;48.180;11.400;2022-08-16T13:12:33;3.35;;;1.70;;
48006;SDS011;33771;48.180;11.400;2022-08-16T13:15:02;3.90;;;1.70;;
48006;SDS011;33771;48.180;11.400;2022-08-16T13:17:29;4.30;;;1.90;;
48006;SDS011;33771;48.180;11.400;2022-08-16T13:19:55;5.43;;;1.90;;
48006;SDS011;33771;48.180;11.400;2022-08-16T13:22:21;4.78;;;1.95;;
48006;SDS011;33771;48.180;11.400;2022-08-16T13:24:47;2.33;;;1.73;;
48006;SDS011;33771;48.180;11.400;2022-08-16T13:27:14;3.10;;;1.80;;
48006;SDS011;33771;48.180;11.400;2022-08-16T13:29:40;3.60;;;2.00;;
48006;SDS011;33771;48.180;11.400;2022-08-16T13:32:05;3.65;;;2.00;;
48006;SDS011;33771;48.180;11.400;2022-08-16T13:34:31;3.28;;;1.88;;
48006;SDS011;33771;48.180;11.400;2022-08-16T13:36:57;3.35;;;1.77;;
48006;SDS011;33771;48.180;11.400;2022-08-16T13:39:23;4.72;;;1.90;;
48006;SDS011;33771;48.180;11.400;2022-08-16T13:41:48;3.28;;;1.83;;
48006;SDS011;33771;48.180;11.400;2022-08-16T13:44:14;7.13;;;2.10;;
48006;SDS011;33771;48.180;11.400;2022-08-16T13:46:41;6.22;;;1.90;;
48006;SDS011;33771;48.180;11.400;2022-08-16T13:49:06;4.53;;;2.13;;
48006;SDS011;33771;48.180;11.400;2022-08-16T13:51:32;2.70;;;1.88;;
48006;SDS011;33771;48.180;11.400;2022-08-16T13:53:58;3.42;;;2.05;;
48006;SDS011;33771;48.180;11.400;2022-08-16T13:56:30;3.95;;;2.00;;
48006;SDS011;33771;48.180;11.400;2022-08-16T13:58:57;8.00;;;2.20;;
48006;SDS011;33771;48.180;11.400;2022-08-16T14:01:24;3.40;;;2.00;;
48006;SDS011;33771;48.180;11.400;2022-08-16T14:03:49;6.50;;;2.53;;
48006;SDS011;33771;48.180;11.400;2022-08-16T14:06:15;5.25;;;2.10;;
48006;SDS011;33771;48.180;11.400;2022-08-16T14:08:41;6.75;;;2.05;;
48006;SDS011;33771;48.180;11.400;2022-08-16T14:11:08;5.45;;;2.17;;
48006;SDS011;33771;48.180;11.400;2022-08-16T14:13:38;5.47;;;2.65;;
48006;SDS011;33771;48.180;11.400;2022-08-16T14:16:04;3.40;;;1.85;;
48006;SDS011;33771;48.180;11.400;2022-08-16T14:18:30;3.35;;;2.15;;
48006;SDS011;33771;48.180;11.400;2022-08-16T14:20:56;3.60;;;2.30;;
48006;SDS011;33771;48.180;11.400;2022-08-16T14:23:22;4.72;;;2.05;;
48006;SDS011;33771;48.180;11.400;2022-08-16T14:25:47;8.30;;;2.40;;
48006;SDS011;33771;48.180;11.400;2022-08-16T14:28:13;7.07;;;2.50;;
48006;SDS011;33771;48.180;11.400;2022-08-16T14:30:39;3.50;;;2.20;;
48006;SDS011;33771;48.180;11.400;2022-08-16T14:33:05;4.38;;;2.15;;
48006;SDS011;33771;48.180;11.400;2022-08-16T14:35:31;5.80;;;2.40;;